sensor_id;sensor_type;location;lat;lon;timestamp;P1;durP1;ratioP1;P2;durP2;ratioP2
17524;SDS011;40431;52.198;9.902;2023-07-29T00:00:05;2.00;;;1.80;;
17524;SDS011;40431;52.198;9.902;2023-07-29T00:02:32;2.97;;;1.40;;
17524;SDS011;40431;52.198;9.902;2023-07-29T00:04:58;1.40;;;1.30;;
17524;SDS011;40431;52.198;9.902;2023-07-29T00:07:25;1.73;;;1.40;;
17524;SDS011;40431;52.198;9.902;2023-07-29T00:09:51;1.60;;;1.50;;
17524;SDS011;40431;52.198;9.902;2023-07-29T00:12:19;1.80;;;1.70;;
17524;SDS011;40431;52.198;9.902;2023-07-29T00:14:45;2.27;;;1.53;;
17524;SDS011;40431;52.198;9.902;2023-07-29T00:17:12;1.83;;;1.60;;
17524;SDS011;40431;52.198;9.902;2023-07-29T00:19:38;1.50;;;1.40;;
17524;SDS011;40431;52.198;9.902;2023-07-29T00:22:04;1.40;;;1.33;;
17524;SDS011;40431;52.198;9.902;2023-07-29T00:24:33;1.47;;;1.37;;
17524;SDS011;40431;52.198;9.902;2023-07-29T00:27:00;1.70;;;1.60;;
17524;SDS011;40431;52.198;9.902;2023-07-29T00:29:27;1.60;;;1.50;;
17524;SDS011;40431;52.198;9.902;2023-07-29T00:31:54;1.70;;;1.60;;
17524;SDS011;40431;52.198;9.902;2023-07-29T00:34:20;2.43;;;1.67;;
17524;SDS011;40431;52.198;9.902;2023-07-29T00:36:46;1.80;;;1.70;;
17524;SDS011;40431;52.198;9.902;2023-07-29T00:39:13;1.50;;;1.40;;
17524;SDS011;40431;52.198;9.902;2023-07-29T00:41:39;1.57;;;1.47;;
17524;SDS011;40431;52.198;9.902;2023-07-29T00:44:06;1.50;;;1.40;;
17524;SDS011;40431;52.198;9.902;2023-07-29T00:46:34;2.00;;;1.90;;
17524;SDS011;40431;52.198;9.902;2023-07-29T00:49:03;1.93;;;1.83;;
17524;SDS011;40431;52.198;9.902;2023-07-29T00:51:29;2.70;;;2.37;;
17524;SDS011;40431;52.198;9.902;2023-07-29T00:53:56;1.90;;;1.80;;
17524;SDS011;40431;52.198;9.902;2023-07-29T00:56:22;1.70;;;1.50;;
17524;SDS011;40431;52.198;9.902;2023-07-29T00:58:48;1.67;;;1.57;;
17524;SDS011;40431;52.198;9.902;2023-07-29T01:01:16;1.90;;;1.80;;
17524;SDS011;40431;52.198;9.902;2023-07-29T01:03:44;1.67;;;1.57;;
17524;SDS011;40431;52.198;9.902;2023-07-29T01:06:12;2.23;;;2.03;;
17524;SDS011;40431;52.198;9.902;2023-07-29T01:08:49;1.80;;;1.70;;
17524;SDS011;40431;52.198;9.902;2023-07-29T01:11:25;1.70;;;1.60;;
17524;SDS011;40431;52.198;9.902;2023-07-29T01:14:02;1.70;;;1.53;;
17524;SDS011;40431;52.198;9.902;2023-07-29T01:16:38;1.70;;;1.60;;
17524;SDS011;40431;52.198;9.902;2023-07-29T01:19:08;2.23;;;2.10;;
17524;SDS011;40431;52.198;9.902;2023-07-29T01:21:52;1.47;;;1.40;;
17524;SDS011;40431;52.198;9.902;2023-07-29T01:24:22;1.83;;;1.73;;
17524;SDS011;40431;52.198;9.902;2023-07-29T01:26:48;1.50;;;1.40;;
17524;SDS011;40431;52.198;9.902;2023-07-29T01:29:15;3.07;;;1.70;;
17524;SDS011;40431;52.198;9.902;2023-07-29T01:31:42;1.70;;;1.60;;
17524;SDS011;40431;52.198;9.902;2023-07-29T01:34:13;7.00;;;1.90;;
17524;SDS011;40431;52.198;9.902;2023-07-29T01:36:43;1.87;;;1.40;;
17524;SDS011;40431;52.198;9.902;2023-07-29T01:39:12;1.83;;;1.73;;
17524;SDS011;40431;52.198;9.902;2023-07-29T01:41:42;2.30;;;1.50;;
17524;SDS011;40431;52.198;9.902;2023-07-29T01:44:09;3.17;;;1.43;;
17524;SDS011;40431;52.198;9.902;2023-07-29T01:46:37;1.87;;;1.77;;
17524;SDS011;40431;52.198;9.902;2023-07-29T01:49:03;1.70;;;1.60;;
17524;SDS011;40431;52.198;9.902;2023-07-29T01:51:30;1.70;;;1.60;;
17524;SDS011;40431;52.198;9.902;2023-07-29T01:53:56;1.80;;;1.60;;
17524;SDS011;40431;52.198;9.902;2023-07-29T01:56:24;1.30;;;1.30;;
17524;SDS011;40431;52.198;9.902;2023-07-29T01:58:51;1.60;;;1.30;;
17524;SDS011;40431;52.198;9.902;2023-07-29T02:01:18;1.90;;;1.70;;
17524;SDS011;40431;52.198;9.902;2023-07-29T02:03:44;1.90;;;1.80;;
17524;SDS011;40431;52.198;9.902;2023-07-29T02:06:10;1.60;;;1.50;;
17524;SDS011;40431;52.198;9.902;2023-07-29T02:08:37;1.60;;;1.50;;
17524;SDS011;40431;52.198;9.902;2023-07-29T02:11:05;1.50;;;1.40;;
17524;SDS011;40431;52.198;9.902;2023-07-29T02:13:32;1.40;;;1.30;;
17524;SDS011;40431;52.198;9.902;2023-07-29T02:16:00;1.93;;;1.70;;
17524;SDS011;40431;52.198;9.902;2023-07-29T02:18:26;1.70;;;1.60;;
17524;SDS011;40431;52.198;9.902;2023-07-29T02:20:52;1.50;;;1.40;;
17524;SDS011;40431;52.198;9.902;2023-07-29T02:23:19;1.77;;;1.67;;
17524;SDS011;40431;52.198;9.902;2023-07-29T02:25:45;1.60;;;1.50;;
17524;SDS011;40431;52.198;9.902;2023-07-29T02:28:11;1.80;;;1.70;;
17524;SDS011;40431;52.198;9.902;2023-07-29T02:30:40;3.90;;;1.50;;
17524;SDS011;40431;52.198;9.902;2023-07-29T02:33:10;1.50;;;1.40;;
17524;SDS011;40431;52.198;9.902;2023-07-29T02:35:36;2.30;;;1.50;;
17524;SDS011;40431;52.198;9.902;2023-07-29T02:38:03;1.93;;;1.43;;
17524;SDS011;40431;52.198;9.902;2023-07-29T02:40:29;1.60;;;1.50;;
17524;SDS011;40431;52.198;9.902;2023-07-29T02:42:56;2.00;;;1.20;;
17524;SDS011;40431;52.198;9.902;2023-07-29T02:45:22;2.40;;;1.40;;
17524;SDS011;40431;52.198;9.902;2023-07-29T02:47:49;1.87;;;1.60;;
17524;SDS011;40431;52.198;9.902;2023-07-29T02:50:16;1.50;;;1.40;;
17524;SDS011;40431;52.198;9.902;2023-07-29T02:52:43;1.30;;;1.30;;
17524;SDS011;40431;52.198;9.902;2023-07-29T02:55:09;1.53;;;1.43;;
17524;SDS011;40431;52.198;9.902;2023-07-29T02:57:35;1.47;;;1.37;;
17524;SDS011;40431;52.198;9.902;2023-07-29T03:00:02;2.13;;;1.33;;
17524;SDS011;40431;52.198;9.902;2023-07-29T03:02:29;1.57;;;1.47;;
17524;SDS011;40431;52.198;9.902;2023-07-29T03:04:55;1.50;;;1.40;;
17524;SDS011;40431;52.198;9.902;2023-07-29T03:07:23;1.77;;;1.57;;
17524;SDS011;40431;52.198;9.902;2023-07-29T03:09:49;2.20;;;1.43;;
17524;SDS011;40431;52.198;9.902;2023-07-29T03:12:15;1.60;;;1.50;;
17524;SDS011;40431;52.198;9.902;2023-07-29T03:14:42;1.63;;;1.50;;
17524;SDS011;40431;52.198;9.902;2023-07-29T03:17:08;6.10;;;1.40;;
17524;SDS011;40431;52.198;9.902;2023-07-29T03:19:35;1.43;;;1.40;;
17524;SDS011;40431;52.198;9.902;2023-07-29T03:22:01;3.20;;;1.40;;
17524;SDS011;40431;52.198;9.902;2023-07-29T03:24:29;1.70;;;1.40;;
17524;SDS011;40431;52.198;9.902;2023-07-29T03:26:55;1.60;;;1.50;;
17524;SDS011;40431;52.198;9.902;2023-07-29T03:29:22;1.80;;;1.70;;
17524;SDS011;40431;52.198;9.902;2023-07-29T03:31:48;1.97;;;1.50;;
17524;SDS011;40431;52.198;9.902;2023-07-29T03:34:14;1.50;;;1.40;;
17524;SDS011;40431;52.198;9.902;2023-07-29T03:36:41;1.70;;;1.60;;
17524;SDS011;40431;52.198;9.902;2023-07-29T03:39:07;1.57;;;1.53;;
17524;SDS011;40431;52.198;9.902;2023-07-29T03:41:35;1.50;;;1.40;;
17524;SDS011;40431;52.198;9.902;2023-07-29T03:44:01;1.70;;;1.60;;
17524;SDS011;40431;52.198;9.902;2023-07-29T03:46:27;1.53;;;1.43;;
17524;SDS011;40431;52.198;9.902;2023-07-29T03:48:54;1.70;;;1.60;;
17524;SDS011;40431;52.198;9.902;2023-07-29T03:51:20;2.30;;;1.70;;
17524;SDS011;40431;52.198;9.902;2023-07-29T03:53:47;1.97;;;1.50;;
17524;SDS011;40431;52.198;9.902;2023-07-29T03:56:14;2.20;;;1.70;;
17524;SDS011;40431;52.198;9.902;2023-07-29T03:58:42;1.60;;;1.50;;
17524;SDS011;40431;52.198;9.902;2023-07-29T04:01:08;1.50;;;1.40;;
17524;SDS011;40431;52.198;9.902;2023-07-29T04:03:35;2.10;;;1.90;;
17524;SDS011;40431;52.198;9.902;2023-07-29T04:06:01;1.70;;;1.60;;
17524;SDS011;40431;52.198;9.902;2023-07-29T04:08:28;1.80;;;1.70;;
17524;SDS011;40431;52.198;9.902;2023-07-29T04:10:54;1.77;;;1.67;;
17524;SDS011;40431;52.198;9.902;2023-07-29T04:13:20;1.87;;;1.77;;
17524;SDS011;40431;52.198;9.902;2023-07-29T04:15:48;3.27;;;1.70;;
17524;SDS011;40431;52.198;9.902;2023-07-29T04:18:14;1.60;;;1.50;;
17524;SDS011;40431;52.198;9.902;2023-07-29T04:20:41;1.80;;;1.70;;
17524;SDS011;40431;52.198;9.902;2023-07-29T04:23:07;1.90;;;1.63;;
17524;SDS011;40431;52.198;9.902;2023-07-29T04:25:34;1.60;;;1.50;;
17524;SDS011;40431;52.198;9.902;2023-07-29T04:28:00;1.50;;;1.40;;
17524;SDS011;40431;52.198;9.902;2023-07-29T04:30:28;1.30;;;1.20;;
17524;SDS011;40431;52.198;9.902;2023-07-29T04:32:56;1.70;;;1.60;;
17524;SDS011;40431;52.198;9.902;2023-07-29T04:35:22;1.83;;;1.63;;
17524;SDS011;40431;52.198;9.902;2023-07-29T04:37:48;3.00;;;1.60;;
17524;SDS011;40431;52.198;9.902;2023-07-29T04:40:15;3.20;;;1.40;;
17524;SDS011;40431;52.198;9.902;2023-07-29T04:42:41;1.77;;;1.67;;
17524;SDS011;40431;52.198;9.902;2023-07-29T04:45:08;1.53;;;1.37;;
17524;SDS011;40431;52.198;9.902;2023-07-29T04:47:34;1.73;;;1.63;;
17524;SDS011;40431;52.198;9.902;2023-07-29T04:50:02;1.50;;;1.40;;
17524;SDS011;40431;52.198;9.902;2023-07-29T04:52:29;1.93;;;1.80;;
17524;SDS011;40431;52.198;9.902;2023-07-29T04:54:55;1.67;;;1.33;;
17524;SDS011;40431;52.198;9.902;2023-07-29T04:57:21;1.43;;;1.33;;
17524;SDS011;40431;52.198;9.902;2023-07-29T04:59:48;1.67;;;1.40;;
17524;SDS011;40431;52.198;9.902;2023-07-29T05:02:14;1.57;;;1.47;;
17524;SDS011;40431;52.198;9.902;2023-07-29T05:04:41;1.70;;;1.60;;
17524;SDS011;40431;52.198;9.902;2023-07-29T05:07:09;1.77;;;1.40;;
17524;SDS011;40431;52.198;9.902;2023-07-29T05:09:35;1.50;;;1.40;;
17524;SDS011;40431;52.198;9.902;2023-07-29T05:12:01;1.40;;;1.30;;
17524;SDS011;40431;52.198;9.902;2023-07-29T05:14:28;1.67;;;1.40;;
17524;SDS011;40431;52.198;9.902;2023-07-29T05:16:54;1.87;;;1.63;;
17524;SDS011;40431;52.198;9.902;2023-07-29T05:19:21;1.37;;;1.37;;
17524;SDS011;40431;52.198;9.902;2023-07-29T05:21:47;1.50;;;1.40;;
17524;SDS011;40431;52.198;9.902;2023-07-29T05:24:15;1.70;;;1.50;;
17524;SDS011;40431;52.198;9.902;2023-07-29T05:26:41;2.90;;;1.60;;
17524;SDS011;40431;52.198;9.902;2023-07-29T05:29:08;2.23;;;1.70;;
17524;SDS011;40431;52.198;9.902;2023-07-29T05:31:34;1.83;;;1.57;;
17524;SDS011;40431;52.198;9.902;2023-07-29T05:34:00;1.87;;;1.63;;
17524;SDS011;40431;52.198;9.902;2023-07-29T05:36:27;1.70;;;1.60;;
17524;SDS011;40431;52.198;9.902;2023-07-29T05:38:54;1.63;;;1.53;;
17524;SDS011;40431;52.198;9.902;2023-07-29T05:41:22;2.10;;;2.00;;
17524;SDS011;40431;52.198;9.902;2023-07-29T05:43:48;1.87;;;1.77;;
17524;SDS011;40431;52.198;9.902;2023-07-29T05:46:14;1.90;;;1.63;;
17524;SDS011;40431;52.198;9.902;2023-07-29T05:48:41;1.63;;;1.30;;
17524;SDS011;40431;52.198;9.902;2023-07-29T05:51:07;3.70;;;2.13;;
17524;SDS011;40431;52.198;9.902;2023-07-29T05:53:34;2.03;;;1.60;;
17524;SDS011;40431;52.198;9.902;2023-07-29T05:56:00;1.60;;;1.50;;
17524;SDS011;40431;52.198;9.902;2023-07-29T05:58:28;2.07;;;1.83;;
17524;SDS011;40431;52.198;9.902;2023-07-29T06:00:56;1.83;;;1.57;;
17524;SDS011;40431;52.198;9.902;2023-07-29T06:03:22;1.83;;;1.70;;
17524;SDS011;40431;52.198;9.902;2023-07-29T06:05:49;2.50;;;2.30;;
17524;SDS011;40431;52.198;9.902;2023-07-29T06:08:15;2.10;;;1.90;;
17524;SDS011;40431;52.198;9.902;2023-07-29T06:10:42;3.03;;;1.80;;
17524;SDS011;40431;52.198;9.902;2023-07-29T06:13:08;2.13;;;2.03;;
17524;SDS011;40431;52.198;9.902;2023-07-29T06:15:36;2.37;;;2.20;;
17524;SDS011;40431;52.198;9.902;2023-07-29T06:18:02;3.00;;;1.97;;
17524;SDS011;40431;52.198;9.902;2023-07-29T06:20:29;2.20;;;2.00;;
17524;SDS011;40431;52.198;9.902;2023-07-29T06:22:55;2.80;;;1.90;;
17524;SDS011;40431;52.198;9.902;2023-07-29T06:25:22;3.00;;;1.67;;
17524;SDS011;40431;52.198;9.902;2023-07-29T06:27:48;2.07;;;1.80;;
17524;SDS011;40431;52.198;9.902;2023-07-29T06:30:14;1.77;;;1.67;;
17524;SDS011;40431;52.198;9.902;2023-07-29T06:32:42;2.43;;;1.60;;
17524;SDS011;40431;52.198;9.902;2023-07-29T06:35:08;1.60;;;1.50;;
17524;SDS011;40431;52.198;9.902;2023-07-29T06:37:35;1.90;;;1.80;;
17524;SDS011;40431;52.198;9.902;2023-07-29T06:40:01;2.23;;;1.63;;
17524;SDS011;40431;52.198;9.902;2023-07-29T06:42:28;1.90;;;1.80;;
17524;SDS011;40431;52.198;9.902;2023-07-29T06:44:54;1.90;;;1.80;;
17524;SDS011;40431;52.198;9.902;2023-07-29T06:47:21;1.60;;;1.50;;
17524;SDS011;40431;52.198;9.902;2023-07-29T06:49:48;1.83;;;1.30;;
17524;SDS011;40431;52.198;9.902;2023-07-29T06:52:15;2.43;;;1.90;;
17524;SDS011;40431;52.198;9.902;2023-07-29T06:54:41;2.23;;;1.43;;
17524;SDS011;40431;52.198;9.902;2023-07-29T06:57:08;1.40;;;1.30;;
17524;SDS011;40431;52.198;9.902;2023-07-29T06:59:34;1.40;;;1.30;;
17524;SDS011;40431;52.198;9.902;2023-07-29T07:02:00;1.40;;;1.30;;
17524;SDS011;40431;52.198;9.902;2023-07-29T07:04:27;1.43;;;1.33;;
17524;SDS011;40431;52.198;9.902;2023-07-29T07:06:54;1.47;;;1.20;;
17524;SDS011;40431;52.198;9.902;2023-07-29T07:09:21;3.70;;;1.00;;
17524;SDS011;40431;52.198;9.902;2023-07-29T07:11:47;1.30;;;1.20;;
17524;SDS011;40431;52.198;9.902;2023-07-29T07:14:14;1.43;;;1.20;;
17524;SDS011;40431;52.198;9.902;2023-07-29T07:16:40;1.60;;;1.27;;
17524;SDS011;40431;52.198;9.902;2023-07-29T07:19:06;1.33;;;0.90;;
17524;SDS011;40431;52.198;9.902;2023-07-29T07:21:33;4.83;;;1.07;;
17524;SDS011;40431;52.198;9.902;2023-07-29T07:24:01;0.80;;;0.80;;
17524;SDS011;40431;52.198;9.902;2023-07-29T07:26:27;1.20;;;1.00;;
17524;SDS011;40431;52.198;9.902;2023-07-29T07:28:54;1.07;;;1.07;;
17524;SDS011;40431;52.198;9.902;2023-07-29T07:31:20;1.00;;;1.00;;
17524;SDS011;40431;52.198;9.902;2023-07-29T07:33:46;0.77;;;0.70;;
17524;SDS011;40431;52.198;9.902;2023-07-29T07:36:13;0.87;;;0.87;;
17524;SDS011;40431;52.198;9.902;2023-07-29T07:38:40;1.53;;;1.00;;
17524;SDS011;40431;52.198;9.902;2023-07-29T07:41:08;0.90;;;0.90;;
17524;SDS011;40431;52.198;9.902;2023-07-29T07:43:34;1.30;;;1.00;;
17524;SDS011;40431;52.198;9.902;2023-07-29T07:46:01;1.63;;;1.07;;
17524;SDS011;40431;52.198;9.902;2023-07-29T07:48:28;1.43;;;1.13;;
17524;SDS011;40431;52.198;9.902;2023-07-29T07:50:54;1.23;;;1.07;;
17524;SDS011;40431;52.198;9.902;2023-07-29T07:53:21;1.33;;;1.00;;
17524;SDS011;40431;52.198;9.902;2023-07-29T07:55:47;1.23;;;0.83;;
17524;SDS011;40431;52.198;9.902;2023-07-29T07:58:15;1.30;;;1.00;;
17524;SDS011;40431;52.198;9.902;2023-07-29T08:00:42;1.23;;;1.00;;
17524;SDS011;40431;52.198;9.902;2023-07-29T08:03:08;0.87;;;0.87;;
17524;SDS011;40431;52.198;9.902;2023-07-29T08:05:35;0.90;;;0.80;;
17524;SDS011;40431;52.198;9.902;2023-07-29T08:08:02;0.90;;;0.90;;
17524;SDS011;40431;52.198;9.902;2023-07-29T08:10:28;0.83;;;0.83;;
17524;SDS011;40431;52.198;9.902;2023-07-29T08:12:54;3.47;;;1.07;;
17524;SDS011;40431;52.198;9.902;2023-07-29T08:15:22;0.83;;;0.83;;
17524;SDS011;40431;52.198;9.902;2023-07-29T08:17:49;0.90;;;0.90;;
17524;SDS011;40431;52.198;9.902;2023-07-29T08:20:15;1.90;;;1.00;;
17524;SDS011;40431;52.198;9.902;2023-07-29T08:22:41;1.37;;;1.03;;
17524;SDS011;40431;52.198;9.902;2023-07-29T08:25:08;1.00;;;1.00;;
17524;SDS011;40431;52.198;9.902;2023-07-29T08:27:34;1.17;;;1.07;;
17524;SDS011;40431;52.198;9.902;2023-07-29T08:30:01;1.53;;;1.40;;
17524;SDS011;40431;52.198;9.902;2023-07-29T08:32:28;1.10;;;1.00;;
17524;SDS011;40431;52.198;9.902;2023-07-29T08:34:55;1.10;;;1.10;;
17524;SDS011;40431;52.198;9.902;2023-07-29T08:37:21;1.10;;;1.00;;
17524;SDS011;40431;52.198;9.902;2023-07-29T08:39:48;1.40;;;1.30;;
17524;SDS011;40431;52.198;9.902;2023-07-29T08:42:14;1.63;;;1.10;;
17524;SDS011;40431;52.198;9.902;2023-07-29T08:44:45;1.00;;;1.00;;
17524;SDS011;40431;52.198;9.902;2023-07-29T08:47:13;1.50;;;1.40;;
17524;SDS011;40431;52.198;9.902;2023-07-29T08:49:41;1.67;;;1.27;;
17524;SDS011;40431;52.198;9.902;2023-07-29T08:52:08;1.23;;;1.10;;
17524;SDS011;40431;52.198;9.902;2023-07-29T08:54:35;1.30;;;1.30;;
17524;SDS011;40431;52.198;9.902;2023-07-29T08:57:02;2.50;;;1.57;;
17524;SDS011;40431;52.198;9.902;2023-07-29T08:59:30;1.53;;;1.30;;
17524;SDS011;40431;52.198;9.902;2023-07-29T09:01:57;1.70;;;1.60;;
17524;SDS011;40431;52.198;9.902;2023-07-29T09:04:24;2.13;;;1.70;;
17524;SDS011;40431;52.198;9.902;2023-07-29T09:06:52;1.50;;;1.40;;
17524;SDS011;40431;52.198;9.902;2023-07-29T09:09:20;1.40;;;1.30;;
17524;SDS011;40431;52.198;9.902;2023-07-29T09:11:47;1.63;;;1.53;;
17524;SDS011;40431;52.198;9.902;2023-07-29T09:14:14;1.50;;;1.40;;
17524;SDS011;40431;52.198;9.902;2023-07-29T09:16:40;1.50;;;1.40;;
17524;SDS011;40431;52.198;9.902;2023-07-29T09:19:07;1.87;;;1.77;;
17524;SDS011;40431;52.198;9.902;2023-07-29T09:21:33;1.70;;;1.60;;
17524;SDS011;40431;52.198;9.902;2023-07-29T09:24:05;3.30;;;1.77;;
17524;SDS011;40431;52.198;9.902;2023-07-29T09:26:32;1.60;;;1.50;;
17524;SDS011;40431;52.198;9.902;2023-07-29T09:28:59;1.70;;;1.60;;
17524;SDS011;40431;52.198;9.902;2023-07-29T09:31:26;2.00;;;1.80;;
17524;SDS011;40431;52.198;9.902;2023-07-29T09:33:55;1.97;;;1.87;;
17524;SDS011;40431;52.198;9.902;2023-07-29T09:36:23;2.67;;;2.57;;
17524;SDS011;40431;52.198;9.902;2023-07-29T09:38:52;2.80;;;2.20;;
17524;SDS011;40431;52.198;9.902;2023-07-29T09:41:20;3.20;;;2.90;;
17524;SDS011;40431;52.198;9.902;2023-07-29T09:43:48;2.27;;;2.17;;
17524;SDS011;40431;52.198;9.902;2023-07-29T09:46:22;2.83;;;2.73;;
17524;SDS011;40431;52.198;9.902;2023-07-29T09:48:49;2.50;;;2.30;;
17524;SDS011;40431;52.198;9.902;2023-07-29T09:51:19;2.87;;;2.77;;
17524;SDS011;40431;52.198;9.902;2023-07-29T09:53:46;4.40;;;4.20;;
17524;SDS011;40431;52.198;9.902;2023-07-29T09:56:14;4.47;;;4.27;;
17524;SDS011;40431;52.198;9.902;2023-07-29T09:58:43;5.10;;;4.80;;
17524;SDS011;40431;52.198;9.902;2023-07-29T10:01:10;5.70;;;5.17;;
17524;SDS011;40431;52.198;9.902;2023-07-29T10:03:37;5.90;;;5.60;;
17524;SDS011;40431;52.198;9.902;2023-07-29T10:06:04;7.47;;;7.00;;
17524;SDS011;40431;52.198;9.902;2023-07-29T10:08:31;8.63;;;8.13;;
17524;SDS011;40431;52.198;9.902;2023-07-29T10:11:00;8.40;;;7.77;;
17524;SDS011;40431;52.198;9.902;2023-07-29T10:13:27;9.67;;;8.67;;
17524;SDS011;40431;52.198;9.902;2023-07-29T10:15:55;8.43;;;7.93;;
17524;SDS011;40431;52.198;9.902;2023-07-29T10:18:23;8.50;;;8.00;;
17524;SDS011;40431;52.198;9.902;2023-07-29T10:20:50;8.00;;;7.50;;
17524;SDS011;40431;52.198;9.902;2023-07-29T10:23:17;8.47;;;7.67;;
17524;SDS011;40431;52.198;9.902;2023-07-29T10:25:47;7.83;;;7.23;;
17524;SDS011;40431;52.198;9.902;2023-07-29T10:28:18;7.43;;;7.03;;
17524;SDS011;40431;52.198;9.902;2023-07-29T10:30:49;7.30;;;6.90;;
17524;SDS011;40431;52.198;9.902;2023-07-29T10:33:17;6.83;;;6.43;;
17524;SDS011;40431;52.198;9.902;2023-07-29T10:35:43;6.33;;;5.93;;
17524;SDS011;40431;52.198;9.902;2023-07-29T10:38:10;6.73;;;6.33;;
17524;SDS011;40431;52.198;9.902;2023-07-29T10:40:45;6.00;;;5.50;;
17524;SDS011;40431;52.198;9.902;2023-07-29T10:43:14;13.13;;;6.07;;
17524;SDS011;40431;52.198;9.902;2023-07-29T10:45:45;5.37;;;5.00;;
17524;SDS011;40431;52.198;9.902;2023-07-29T10:48:12;5.20;;;4.80;;
17524;SDS011;40431;52.198;9.902;2023-07-29T10:50:40;5.10;;;4.70;;
17524;SDS011;40431;52.198;9.902;2023-07-29T10:53:07;4.73;;;4.43;;
17524;SDS011;40431;52.198;9.902;2023-07-29T10:55:34;4.03;;;3.83;;
17524;SDS011;40431;52.198;9.902;2023-07-29T11:00:46;4.23;;;4.00;;
17524;SDS011;40431;52.198;9.902;2023-07-29T11:03:13;4.00;;;3.70;;
17524;SDS011;40431;52.198;9.902;2023-07-29T11:05:45;4.10;;;3.70;;
17524;SDS011;40431;52.198;9.902;2023-07-29T11:11:05;3.70;;;3.40;;
17524;SDS011;40431;52.198;9.902;2023-07-29T11:13:33;3.90;;;3.63;;
17524;SDS011;40431;52.198;9.902;2023-07-29T11:16:00;4.43;;;4.07;;
17524;SDS011;40431;52.198;9.902;2023-07-29T11:18:27;4.00;;;3.80;;
17524;SDS011;40431;52.198;9.902;2023-07-29T11:20:58;3.60;;;3.33;;
17524;SDS011;40431;52.198;9.902;2023-07-29T11:23:29;3.93;;;3.63;;
17524;SDS011;40431;52.198;9.902;2023-07-29T11:25:56;3.40;;;3.20;;
17524;SDS011;40431;52.198;9.902;2023-07-29T11:28:23;3.57;;;3.37;;
17524;SDS011;40431;52.198;9.902;2023-07-29T11:30:50;3.10;;;2.90;;
17524;SDS011;40431;52.198;9.902;2023-07-29T11:33:17;3.70;;;3.50;;
17524;SDS011;40431;52.198;9.902;2023-07-29T11:35:44;2.60;;;2.50;;
17524;SDS011;40431;52.198;9.902;2023-07-29T11:38:15;2.47;;;2.30;;
17524;SDS011;40431;52.198;9.902;2023-07-29T11:40:42;2.13;;;2.03;;
17524;SDS011;40431;52.198;9.902;2023-07-29T11:43:08;1.87;;;1.50;;
17524;SDS011;40431;52.198;9.902;2023-07-29T11:45:35;1.90;;;1.80;;
17524;SDS011;40431;52.198;9.902;2023-07-29T11:48:01;2.47;;;2.27;;
17524;SDS011;40431;52.198;9.902;2023-07-29T11:50:28;3.57;;;1.80;;
17524;SDS011;40431;52.198;9.902;2023-07-29T11:52:54;1.70;;;1.60;;
17524;SDS011;40431;52.198;9.902;2023-07-29T11:55:22;1.90;;;1.63;;
17524;SDS011;40431;52.198;9.902;2023-07-29T11:57:50;2.10;;;1.40;;
17524;SDS011;40431;52.198;9.902;2023-07-29T12:00:17;1.20;;;1.00;;
17524;SDS011;40431;52.198;9.902;2023-07-29T12:02:44;1.33;;;0.90;;
17524;SDS011;40431;52.198;9.902;2023-07-29T12:05:13;1.30;;;1.20;;
17524;SDS011;40431;52.198;9.902;2023-07-29T12:07:41;2.60;;;1.20;;
17524;SDS011;40431;52.198;9.902;2023-07-29T12:10:09;1.43;;;0.93;;
17524;SDS011;40431;52.198;9.902;2023-07-29T12:12:38;1.80;;;1.07;;
17524;SDS011;40431;52.198;9.902;2023-07-29T12:15:10;1.13;;;1.10;;
17524;SDS011;40431;52.198;9.902;2023-07-29T12:17:39;1.80;;;0.90;;
17524;SDS011;40431;52.198;9.902;2023-07-29T12:20:07;3.00;;;0.80;;
17524;SDS011;40431;52.198;9.902;2023-07-29T12:22:35;0.90;;;0.90;;
17524;SDS011;40431;52.198;9.902;2023-07-29T12:25:02;1.93;;;0.93;;
17524;SDS011;40431;52.198;9.902;2023-07-29T12:27:29;0.70;;;0.70;;
17524;SDS011;40431;52.198;9.902;2023-07-29T12:30:00;1.47;;;0.90;;
17524;SDS011;40431;52.198;9.902;2023-07-29T12:32:28;1.37;;;0.90;;
17524;SDS011;40431;52.198;9.902;2023-07-29T12:34:55;0.80;;;0.80;;
17524;SDS011;40431;52.198;9.902;2023-07-29T12:37:30;0.83;;;0.83;;
17524;SDS011;40431;52.198;9.902;2023-07-29T12:39:57;0.93;;;0.80;;
17524;SDS011;40431;52.198;9.902;2023-07-29T12:42:23;0.80;;;0.80;;
17524;SDS011;40431;52.198;9.902;2023-07-29T12:44:50;1.00;;;0.90;;
17524;SDS011;40431;52.198;9.902;2023-07-29T12:47:17;0.90;;;0.90;;
17524;SDS011;40431;52.198;9.902;2023-07-29T12:49:44;0.80;;;0.80;;
17524;SDS011;40431;52.198;9.902;2023-07-29T12:52:10;1.53;;;0.90;;
17524;SDS011;40431;52.198;9.902;2023-07-29T12:54:36;1.00;;;0.80;;
17524;SDS011;40431;52.198;9.902;2023-07-29T12:57:05;0.70;;;0.70;;
17524;SDS011;40431;52.198;9.902;2023-07-29T12:59:32;2.30;;;0.80;;
17524;SDS011;40431;52.198;9.902;2023-07-29T13:01:58;3.57;;;0.90;;
17524;SDS011;40431;52.198;9.902;2023-07-29T13:04:26;1.57;;;0.80;;
17524;SDS011;40431;52.198;9.902;2023-07-29T13:06:52;0.90;;;0.80;;
17524;SDS011;40431;52.198;9.902;2023-07-29T13:09:18;1.07;;;0.80;;
17524;SDS011;40431;52.198;9.902;2023-07-29T13:11:45;0.80;;;0.80;;
17524;SDS011;40431;52.198;9.902;2023-07-29T13:14:12;0.80;;;0.70;;
17524;SDS011;40431;52.198;9.902;2023-07-29T13:16:38;1.03;;;1.03;;
17524;SDS011;40431;52.198;9.902;2023-07-29T13:19:05;0.70;;;0.70;;
17524;SDS011;40431;52.198;9.902;2023-07-29T13:21:33;0.70;;;0.70;;
17524;SDS011;40431;52.198;9.902;2023-07-29T13:23:59;1.00;;;1.00;;
17524;SDS011;40431;52.198;9.902;2023-07-29T13:26:26;1.43;;;0.80;;
17524;SDS011;40431;52.198;9.902;2023-07-29T13:28:52;1.43;;;0.80;;
17524;SDS011;40431;52.198;9.902;2023-07-29T13:31:20;0.83;;;0.83;;
17524;SDS011;40431;52.198;9.902;2023-07-29T13:33:46;0.90;;;0.90;;
17524;SDS011;40431;52.198;9.902;2023-07-29T13:36:12;0.93;;;0.93;;
17524;SDS011;40431;52.198;9.902;2023-07-29T13:38:40;0.87;;;0.87;;
17524;SDS011;40431;52.198;9.902;2023-07-29T13:41:07;0.70;;;0.70;;
17524;SDS011;40431;52.198;9.902;2023-07-29T13:43:33;1.00;;;0.90;;
17524;SDS011;40431;52.198;9.902;2023-07-29T13:46:00;1.23;;;0.70;;
17524;SDS011;40431;52.198;9.902;2023-07-29T13:48:26;1.07;;;0.63;;
17524;SDS011;40431;52.198;9.902;2023-07-29T13:50:52;1.57;;;0.90;;
17524;SDS011;40431;52.198;9.902;2023-07-29T13:53:19;0.70;;;0.70;;
17524;SDS011;40431;52.198;9.902;2023-07-29T13:55:46;0.80;;;0.80;;
17524;SDS011;40431;52.198;9.902;2023-07-29T13:58:13;0.70;;;0.70;;
17524;SDS011;40431;52.198;9.902;2023-07-29T14:00:39;0.63;;;0.63;;
17524;SDS011;40431;52.198;9.902;2023-07-29T14:03:06;2.90;;;0.70;;
17524;SDS011;40431;52.198;9.902;2023-07-29T14:05:32;0.70;;;0.70;;
17524;SDS011;40431;52.198;9.902;2023-07-29T14:07:58;0.80;;;0.80;;
17524;SDS011;40431;52.198;9.902;2023-07-29T14:10:25;0.87;;;0.70;;
17524;SDS011;40431;52.198;9.902;2023-07-29T14:12:52;1.23;;;0.80;;
17524;SDS011;40431;52.198;9.902;2023-07-29T14:15:19;1.63;;;0.80;;
17524;SDS011;40431;52.198;9.902;2023-07-29T14:17:45;0.80;;;0.80;;
17524;SDS011;40431;52.198;9.902;2023-07-29T14:20:12;0.93;;;0.70;;
17524;SDS011;40431;52.198;9.902;2023-07-29T14:22:39;0.80;;;0.80;;
17524;SDS011;40431;52.198;9.902;2023-07-29T14:25:06;0.80;;;0.80;;
17524;SDS011;40431;52.198;9.902;2023-07-29T14:27:33;1.20;;;0.80;;
17524;SDS011;40431;52.198;9.902;2023-07-29T14:30:01;0.77;;;0.77;;
17524;SDS011;40431;52.198;9.902;2023-07-29T14:32:27;1.63;;;0.80;;
17524;SDS011;40431;52.198;9.902;2023-07-29T14:34:54;1.33;;;1.10;;
17524;SDS011;40431;52.198;9.902;2023-07-29T14:37:20;0.90;;;0.90;;
17524;SDS011;40431;52.198;9.902;2023-07-29T14:39:46;1.43;;;0.87;;
17524;SDS011;40431;52.198;9.902;2023-07-29T14:42:13;0.90;;;0.90;;
17524;SDS011;40431;52.198;9.902;2023-07-29T14:44:40;1.40;;;0.90;;
17524;SDS011;40431;52.198;9.902;2023-07-29T14:49:35;0.90;;;0.90;;
17524;SDS011;40431;52.198;9.902;2023-07-29T14:52:01;0.80;;;0.80;;
17524;SDS011;40431;52.198;9.902;2023-07-29T14:54:28;1.97;;;1.87;;